sensor_id;sensor_type;location;lat;lon;timestamp;pressure;altitude;pressure_sealevel;temperature;humidity
35224;BME280;21367;51.930;8.112;2023-07-13T00:03:33;100755.28;;;18.39;78.29
35224;BME280;21367;51.930;8.112;2023-07-13T00:08:40;100760.47;;;18.36;78.56
35224;BME280;21367;51.930;8.112;2023-07-13T00:13:44;100766.56;;;18.38;78.66
35224;BME280;21367;51.930;8.112;2023-07-13T00:18:48;100765.63;;;18.33;78.58
35224;BME280;21367;51.930;8.112;2023-07-13T00:23:56;100764.81;;;18.36;78.84
35224;BME280;21367;51.930;8.112;2023-07-13T00:29:01;100775.06;;;18.23;78.95
35224;BME280;21367;51.930;8.112;2023-07-13T00:34:07;100774.31;;;18.31;78.97
35224;BME280;21367;51.930;8.112;2023-07-13T00:39:13;100775.84;;;18.16;79.75
35224;BME280;21367;51.930;8.112;2023-07-13T00:44:18;100782.75;;;18.13;79.55
35224;BME280;21367;51.930;8.112;2023-07-13T00:49:26;100779.41;;;18.23;79.46
35224;BME280;21367;51.930;8.112;2023-07-13T00:54:36;100781.03;;;18.13;80.04
35224;BME280;21367;51.930;8.112;2023-07-13T00:59:42;100787.88;;;18.08;80.75
35224;BME280;21367;51.930;8.112;2023-07-13T01:04:46;100778.03;;;17.83;83.65
35224;BME280;21367;51.930;8.112;2023-07-13T01:09:53;100778.06;;;17.84;85.07
35224;BME280;21367;51.930;8.112;2023-07-13T01:14:57;100774.72;;;17.93;86.37
35224;BME280;21367;51.930;8.112;2023-07-13T01:20:01;100781.53;;;17.85;87.08
35224;BME280;21367;51.930;8.112;2023-07-13T01:25:08;100766.78;;;17.84;88.34
35224;BME280;21367;51.930;8.112;2023-07-13T01:30:12;100766.59;;;17.73;89.26
35224;BME280;21367;51.930;8.112;2023-07-13T01:35:16;100769.88;;;17.58;89.73
35224;BME280;21367;51.930;8.112;2023-07-13T01:40:28;100771.50;;;17.53;89.93
35224;BME280;21367;51.930;8.112;2023-07-13T01:45:33;100772.00;;;17.27;91.42
35224;BME280;21367;51.930;8.112;2023-07-13T01:50:37;100775.53;;;17.32;91.11
35224;BME280;21367;51.930;8.112;2023-07-13T01:55:44;100771.59;;;17.04;92.28
35224;BME280;21367;51.930;8.112;2023-07-13T02:00:49;100771.66;;;17.06;92.86
35224;BME280;21367;51.930;8.112;2023-07-13T02:05:53;100776.78;;;17.03;92.31
35224;BME280;21367;51.930;8.112;2023-07-13T02:10:59;100789.31;;;16.77;92.88
35224;BME280;21367;51.930;8.112;2023-07-13T02:16:03;100789.50;;;16.89;92.72
35224;BME280;21367;51.930;8.112;2023-07-13T02:21:07;100790.41;;;16.90;92.19
35224;BME280;21367;51.930;8.112;2023-07-13T02:26:13;100784.09;;;16.75;92.57
35224;BME280;21367;51.930;8.112;2023-07-13T02:31:17;100782.97;;;16.62;91.93
35224;BME280;21367;51.930;8.112;2023-07-13T02:36:21;100778.69;;;16.64;92.31
35224;BME280;21367;51.930;8.112;2023-07-13T02:41:27;100782.56;;;16.41;93.69
35224;BME280;21367;51.930;8.112;2023-07-13T02:46:31;100780.88;;;16.43;93.62
35224;BME280;21367;51.930;8.112;2023-07-13T02:51:35;100772.34;;;16.49;92.56
35224;BME280;21367;51.930;8.112;2023-07-13T02:56:42;100787.75;;;16.41;92.99
35224;BME280;21367;51.930;8.112;2023-07-13T03:01:46;100788.44;;;16.32;93.43
35224;BME280;21367;51.930;8.112;2023-07-13T03:06:50;100790.78;;;16.20;93.83
35224;BME280;21367;51.930;8.112;2023-07-13T03:11:56;100794.97;;;16.13;93.52
35224;BME280;21367;51.930;8.112;2023-07-13T03:17:03;100789.78;;;16.13;93.20
35224;BME280;21367;51.930;8.112;2023-07-13T03:22:11;100796.59;;;16.08;92.74
35224;BME280;21367;51.930;8.112;2023-07-13T03:27:19;100799.44;;;15.80;92.90
35224;BME280;21367;51.930;8.112;2023-07-13T03:32:24;100808.31;;;15.91;91.73
35224;BME280;21367;51.930;8.112;2023-07-13T03:37:28;100795.69;;;15.32;93.04
35224;BME280;21367;51.930;8.112;2023-07-13T03:42:34;100802.53;;;15.66;91.19
35224;BME280;21367;51.930;8.112;2023-07-13T03:47:38;100811.16;;;15.65;88.96
35224;BME280;21367;51.930;8.112;2023-07-13T03:52:42;100814.81;;;15.72;89.12
35224;BME280;21367;51.930;8.112;2023-07-13T03:57:59;100816.13;;;15.92;87.06
35224;BME280;21367;51.930;8.112;2023-07-13T04:03:03;100826.50;;;15.92;87.11
35224;BME280;21367;51.930;8.112;2023-07-13T04:08:07;100841.72;;;15.77;87.93
35224;BME280;21367;51.930;8.112;2023-07-13T04:13:13;100840.69;;;15.70;87.76
35224;BME280;21367;51.930;8.112;2023-07-13T04:18:16;100842.44;;;15.71;88.34
35224;BME280;21367;51.930;8.112;2023-07-13T04:23:20;100841.66;;;15.76;86.84
35224;BME280;21367;51.930;8.112;2023-07-13T04:28:27;100836.63;;;15.45;88.44
35224;BME280;21367;51.930;8.112;2023-07-13T04:33:31;100832.16;;;15.05;90.34
35224;BME280;21367;51.930;8.112;2023-07-13T04:38:35;100839.78;;;15.35;89.60
35224;BME280;21367;51.930;8.112;2023-07-13T04:43:42;100832.78;;;15.30;90.21
35224;BME280;21367;51.930;8.112;2023-07-13T04:48:46;100845.44;;;15.54;88.46
35224;BME280;21367;51.930;8.112;2023-07-13T04:53:54;100841.81;;;15.47;88.61
35224;BME280;21367;51.930;8.112;2023-07-13T04:59:00;100849.16;;;15.65;87.66
35224;BME280;21367;51.930;8.112;2023-07-13T05:04:03;100856.94;;;15.65;87.06
35224;BME280;21367;51.930;8.112;2023-07-13T05:09:07;100854.38;;;15.66;88.28
35224;BME280;21367;51.930;8.112;2023-07-13T05:14:13;100850.59;;;15.88;86.49
35224;BME280;21367;51.930;8.112;2023-07-13T05:19:17;100859.22;;;15.87;86.81
35224;BME280;21367;51.930;8.112;2023-07-13T05:24:20;100861.44;;;15.70;88.02
35224;BME280;21367;51.930;8.112;2023-07-13T05:29:27;100871.53;;;15.98;85.83
35224;BME280;21367;51.930;8.112;2023-07-13T05:34:31;100874.34;;;16.07;86.41
35224;BME280;21367;51.930;8.112;2023-07-13T05:39:35;100878.72;;;16.09;86.62
35224;BME280;21367;51.930;8.112;2023-07-13T05:44:41;100895.66;;;15.93;87.27
35224;BME280;21367;51.930;8.112;2023-07-13T05:49:45;100885.78;;;16.16;87.26
35224;BME280;21367;51.930;8.112;2023-07-13T05:54:49;100891.63;;;16.46;86.43
35224;BME280;21367;51.930;8.112;2023-07-13T05:59:55;100909.66;;;16.39;85.43
35224;BME280;21367;51.930;8.112;2023-07-13T06:04:59;100903.25;;;16.24;87.08
35224;BME280;21367;51.930;8.112;2023-07-13T06:10:03;100913.25;;;16.46;86.60
35224;BME280;21367;51.930;8.112;2023-07-13T06:15:11;100909.19;;;16.59;86.83
35224;BME280;21367;51.930;8.112;2023-07-13T06:20:15;100908.94;;;16.87;85.65
35224;BME280;21367;51.930;8.112;2023-07-13T06:25:18;100902.50;;;17.14;85.18
35224;BME280;21367;51.930;8.112;2023-07-13T06:30:25;100909.56;;;17.21;84.21
35224;BME280;21367;51.930;8.112;2023-07-13T06:35:29;100911.41;;;17.27;84.31
35224;BME280;21367;51.930;8.112;2023-07-13T06:40:32;100912.09;;;17.18;84.92
35224;BME280;21367;51.930;8.112;2023-07-13T06:45:40;100915.97;;;17.42;85.49
35224;BME280;21367;51.930;8.112;2023-07-13T06:50:49;100921.22;;;17.45;85.47
35224;BME280;21367;51.930;8.112;2023-07-13T06:55:54;100914.50;;;17.57;85.94
35224;BME280;21367;51.930;8.112;2023-07-13T07:01:00;100923.88;;;17.48;85.53
35224;BME280;21367;51.930;8.112;2023-07-13T07:06:06;100929.19;;;17.52;86.00
35224;BME280;21367;51.930;8.112;2023-07-13T07:11:18;100936.25;;;18.14;84.45
35224;BME280;21367;51.930;8.112;2023-07-13T07:16:25;100934.50;;;18.13;84.15
35224;BME280;21367;51.930;8.112;2023-07-13T07:21:29;100940.22;;;18.50;81.94
35224;BME280;21367;51.930;8.112;2023-07-13T07:26:33;100941.50;;;18.80;80.82
35224;BME280;21367;51.930;8.112;2023-07-13T07:31:39;100935.56;;;18.90;80.68
35224;BME280;21367;51.930;8.112;2023-07-13T07:36:42;100941.50;;;18.80;79.64
35224;BME280;21367;51.930;8.112;2023-07-13T07:41:46;100945.03;;;18.86;79.98
35224;BME280;21367;51.930;8.112;2023-07-13T07:46:55;100942.44;;;18.85;79.34
35224;BME280;21367;51.930;8.112;2023-07-13T07:51:59;100939.84;;;18.86;79.42
35224;BME280;21367;51.930;8.112;2023-07-13T07:57:06;100954.78;;;19.00;79.44
35224;BME280;21367;51.930;8.112;2023-07-13T08:02:13;100945.84;;;18.78;79.95
35224;BME280;21367;51.930;8.112;2023-07-13T08:07:17;100943.56;;;19.07;79.29
35224;BME280;21367;51.930;8.112;2023-07-13T08:12:20;100952.69;;;19.50;77.01
35224;BME280;21367;51.930;8.112;2023-07-13T08:17:27;100948.41;;;19.57;75.67
35224;BME280;21367;51.930;8.112;2023-07-13T08:22:30;100944.91;;;19.58;75.18
35224;BME280;21367;51.930;8.112;2023-07-13T08:27:34;100950.50;;;19.93;74.05
35224;BME280;21367;51.930;8.112;2023-07-13T08:32:40;100941.03;;;20.09;73.46
35224;BME280;21367;51.930;8.112;2023-07-13T08:37:44;100936.94;;;20.52;72.64
35224;BME280;21367;51.930;8.112;2023-07-13T08:42:53;100939.69;;;20.86;71.45
35224;BME280;21367;51.930;8.112;2023-07-13T08:48:02;100938.84;;;20.96;71.53
35224;BME280;21367;51.930;8.112;2023-07-13T08:53:11;100954.47;;;20.76;69.22
35224;BME280;21367;51.930;8.112;2023-07-13T08:58:17;100950.22;;;21.01;69.05
35224;BME280;21367;51.930;8.112;2023-07-13T09:03:26;100947.66;;;21.20;68.41
35224;BME280;21367;51.930;8.112;2023-07-13T09:08:46;100952.81;;;20.97;67.91
35224;BME280;21367;51.930;8.112;2023-07-13T09:13:57;100944.06;;;20.86;67.28
35224;BME280;21367;51.930;8.112;2023-07-13T09:19:11;100945.06;;;22.39;64.74
35224;BME280;21367;51.930;8.112;2023-07-13T09:24:35;100942.47;;;22.24;63.95
35224;BME280;21367;51.930;8.112;2023-07-13T09:29:41;100930.31;;;21.73;64.12
35224;BME280;21367;51.930;8.112;2023-07-13T09:34:55;100931.16;;;22.19;63.51
35224;BME280;21367;51.930;8.112;2023-07-13T09:40:01;100938.06;;;22.49;63.20
35224;BME280;21367;51.930;8.112;2023-07-13T09:45:10;100936.97;;;23.07;61.24
35224;BME280;21367;51.930;8.112;2023-07-13T09:50:17;100929.97;;;23.04;62.40
35224;BME280;21367;51.930;8.112;2023-07-13T09:55:26;100944.91;;;22.81;62.41
35224;BME280;21367;51.930;8.112;2023-07-13T10:00:30;100943.66;;;23.54;59.25
35224;BME280;21367;51.930;8.112;2023-07-13T10:05:41;100947.25;;;23.38;59.82
35224;BME280;21367;51.930;8.112;2023-07-13T10:10:45;100945.09;;;23.93;58.11
35224;BME280;21367;51.930;8.112;2023-07-13T10:15:49;100941.56;;;23.97;58.43
35224;BME280;21367;51.930;8.112;2023-07-13T10:21:19;100949.25;;;22.91;60.58
35224;BME280;21367;51.930;8.112;2023-07-13T10:26:27;100947.97;;;23.58;59.21
35224;BME280;21367;51.930;8.112;2023-07-13T10:31:34;100958.91;;;24.12;59.41
35224;BME280;21367;51.930;8.112;2023-07-13T10:36:43;100949.72;;;25.81;53.86
35224;BME280;21367;51.930;8.112;2023-07-13T10:41:50;100951.59;;;25.16;54.19
35224;BME280;21367;51.930;8.112;2023-07-13T10:46:58;100940.44;;;24.97;53.76
35224;BME280;21367;51.930;8.112;2023-07-13T10:52:06;100964.19;;;24.11;57.40
35224;BME280;21367;51.930;8.112;2023-07-13T10:57:20;100966.63;;;23.12;59.68
35224;BME280;21367;51.930;8.112;2023-07-13T11:02:26;100965.78;;;23.12;60.08
35224;BME280;21367;51.930;8.112;2023-07-13T11:07:52;100962.66;;;25.39;54.63
35224;BME280;21367;51.930;8.112;2023-07-13T11:12:56;100968.66;;;24.86;54.91
35224;BME280;21367;51.930;8.112;2023-07-13T11:18:03;100962.56;;;23.96;56.40
35224;BME280;21367;51.930;8.112;2023-07-13T11:23:29;100951.28;;;25.37;53.19
35224;BME280;21367;51.930;8.112;2023-07-13T11:28:34;100954.25;;;24.40;55.79
35224;BME280;21367;51.930;8.112;2023-07-13T11:33:52;100953.03;;;27.28;50.00
35224;BME280;21367;51.930;8.112;2023-07-13T11:39:02;100937.47;;;27.53;49.67
35224;BME280;21367;51.930;8.112;2023-07-13T11:44:12;100928.28;;;26.48;49.47
35224;BME280;21367;51.930;8.112;2023-07-13T11:49:17;100942.53;;;24.69;53.93
35224;BME280;21367;51.930;8.112;2023-07-13T11:54:29;100947.41;;;25.00;52.73
35224;BME280;21367;51.930;8.112;2023-07-13T11:59:38;100953.00;;;25.40;51.34
35224;BME280;21367;51.930;8.112;2023-07-13T12:04:43;100943.03;;;27.00;49.20
35224;BME280;21367;51.930;8.112;2023-07-13T12:09:51;100946.94;;;26.82;48.37
35224;BME280;21367;51.930;8.112;2023-07-13T12:14:54;100936.41;;;27.22;48.24
35224;BME280;21367;51.930;8.112;2023-07-13T12:19:58;100942.75;;;25.77;50.09
35224;BME280;21367;51.930;8.112;2023-07-13T12:25:05;100937.50;;;27.12;49.47
35224;BME280;21367;51.930;8.112;2023-07-13T12:30:24;100927.31;;;27.70;44.30
35224;BME280;21367;51.930;8.112;2023-07-13T12:35:30;100951.88;;;26.99;46.37
35224;BME280;21367;51.930;8.112;2023-07-13T12:40:39;100945.19;;;28.62;45.07
35224;BME280;21367;51.930;8.112;2023-07-13T12:45:55;100945.03;;;27.29;46.33
35224;BME280;21367;51.930;8.112;2023-07-13T12:51:01;100943.09;;;26.98;47.92
35224;BME280;21367;51.930;8.112;2023-07-13T12:56:12;100938.63;;;28.11;45.06
35224;BME280;21367;51.930;8.112;2023-07-13T13:01:21;100952.28;;;26.81;49.55
35224;BME280;21367;51.930;8.112;2023-07-13T13:06:28;100953.09;;;26.38;47.88
35224;BME280;21367;51.930;8.112;2023-07-13T13:11:35;100948.69;;;24.68;53.35
35224;BME280;21367;51.930;8.112;2023-07-13T13:16:46;100967.41;;;24.42;53.30
35224;BME280;21367;51.930;8.112;2023-07-13T13:21:53;100973.09;;;23.94;53.15
35224;BME280;21367;51.930;8.112;2023-07-13T13:27:00;100975.06;;;24.63;52.93
35224;BME280;21367;51.930;8.112;2023-07-13T13:32:08;100969.94;;;26.29;51.62
35224;BME280;21367;51.930;8.112;2023-07-13T13:37:18;100988.00;;;27.37;49.54
35224;BME280;21367;51.930;8.112;2023-07-13T13:42:25;101008.09;;;26.59;52.02
35224;BME280;21367;51.930;8.112;2023-07-13T13:47:31;101034.41;;;23.87;64.93
35224;BME280;21367;51.930;8.112;2023-07-13T13:52:36;101041.69;;;23.35;72.53
35224;BME280;21367;51.930;8.112;2023-07-13T13:57:43;101032.25;;;22.84;73.86
35224;BME280;21367;51.930;8.112;2023-07-13T14:02:48;101030.78;;;24.95;68.82
35224;BME280;21367;51.930;8.112;2023-07-13T14:07:52;101032.59;;;24.89;66.00
35224;BME280;21367;51.930;8.112;2023-07-13T14:12:59;101038.25;;;24.50;64.58
35224;BME280;21367;51.930;8.112;2023-07-13T14:18:08;101037.03;;;23.84;67.36
35224;BME280;21367;51.930;8.112;2023-07-13T14:23:12;101065.50;;;22.70;72.11
35224;BME280;21367;51.930;8.112;2023-07-13T14:28:25;101082.06;;;21.77;74.60
35224;BME280;21367;51.930;8.112;2023-07-13T14:33:29;101087.66;;;20.70;74.27
35224;BME280;21367;51.930;8.112;2023-07-13T14:38:33;101101.50;;;19.66;80.37
35224;BME280;21367;51.930;8.112;2023-07-13T14:43:39;101105.88;;;19.01;82.67
35224;BME280;21367;51.930;8.112;2023-07-13T14:48:43;101117.16;;;19.00;85.51
35224;BME280;21367;51.930;8.112;2023-07-13T14:53:47;101118.16;;;18.02;92.06
35224;BME280;21367;51.930;8.112;2023-07-13T14:58:53;101112.94;;;18.52;90.06
35224;BME280;21367;51.930;8.112;2023-07-13T15:03:57;101107.91;;;18.64;91.61
35224;BME280;21367;51.930;8.112;2023-07-13T15:09:01;101107.19;;;18.73;88.97
35224;BME280;21367;51.930;8.112;2023-07-13T15:14:07;101105.69;;;18.87;89.89
35224;BME280;21367;51.930;8.112;2023-07-13T15:19:11;101107.66;;;19.02;89.31
35224;BME280;21367;51.930;8.112;2023-07-13T15:24:15;101105.78;;;18.93;89.64
35224;BME280;21367;51.930;8.112;2023-07-13T15:29:21;101096.09;;;18.86;88.83
35224;BME280;21367;51.930;8.112;2023-07-13T15:34:26;101094.81;;;19.19;86.45
35224;BME280;21367;51.930;8.112;2023-07-13T15:39:30;101084.66;;;21.68;75.58
35224;BME280;21367;51.930;8.112;2023-07-13T15:44:36;101079.16;;;23.69;70.43
35224;BME280;21367;51.930;8.112;2023-07-13T15:49:41;101075.69;;;23.56;65.75
35224;BME280;21367;51.930;8.112;2023-07-13T15:54:44;101084.66;;;23.11;65.12
35224;BME280;21367;51.930;8.112;2023-07-13T15:59:51;101084.78;;;22.29;69.86
35224;BME280;21367;51.930;8.112;2023-07-13T16:04:54;101077.72;;;22.65;68.94
35224;BME280;21367;51.930;8.112;2023-07-13T16:10:02;101073.44;;;22.35;70.55
35224;BME280;21367;51.930;8.112;2023-07-13T16:15:13;101083.91;;;22.41;71.41
35224;BME280;21367;51.930;8.112;2023-07-13T16:20:19;101084.09;;;24.12;65.81
35224;BME280;21367;51.930;8.112;2023-07-13T16:25:25;101084.94;;;25.14;61.99
35224;BME280;21367;51.930;8.112;2023-07-13T16:30:35;101082.78;;;25.45;61.59
35224;BME280;21367;51.930;8.112;2023-07-13T16:35:40;101086.63;;;24.24;63.09
35224;BME280;21367;51.930;8.112;2023-07-13T16:40:47;101087.38;;;22.40;69.10
35224;BME280;21367;51.930;8.112;2023-07-13T16:45:55;101082.81;;;23.31;67.13
35224;BME280;21367;51.930;8.112;2023-07-13T16:51:03;101079.47;;;22.74;68.91
35224;BME280;21367;51.930;8.112;2023-07-13T16:56:13;101069.03;;;22.52;70.16
35224;BME280;21367;51.930;8.112;2023-07-13T17:01:20;101082.09;;;22.11;70.72
35224;BME280;21367;51.930;8.112;2023-07-13T17:06:24;101095.22;;;22.06;70.90
35224;BME280;21367;51.930;8.112;2023-07-13T17:11:27;101088.22;;;22.11;71.05
35224;BME280;21367;51.930;8.112;2023-07-13T17:16:35;101101.25;;;21.79;72.46
35224;BME280;21367;51.930;8.112;2023-07-13T17:21:39;101097.72;;;21.57;73.03
35224;BME280;21367;51.930;8.112;2023-07-13T17:26:43;101106.28;;;21.33;76.43
35224;BME280;21367;51.930;8.112;2023-07-13T17:31:49;101098.28;;;20.93;79.88
35224;BME280;21367;51.930;8.112;2023-07-13T17:36:54;101096.53;;;20.95;79.95
35224;BME280;21367;51.930;8.112;2023-07-13T17:41:59;101098.09;;;20.66;80.42
35224;BME280;21367;51.930;8.112;2023-07-13T17:47:07;101103.56;;;19.99;84.64
35224;BME280;21367;51.930;8.112;2023-07-13T17:52:15;101118.38;;;19.97;84.79
35224;BME280;21367;51.930;8.112;2023-07-13T17:57:19;101117.34;;;19.82;86.00
35224;BME280;21367;51.930;8.112;2023-07-13T18:02:25;101127.66;;;19.73;87.69
35224;BME280;21367;51.930;8.112;2023-07-13T18:07:32;101132.53;;;19.49;87.78
35224;BME280;21367;51.930;8.112;2023-07-13T18:12:35;101141.28;;;19.49;88.72
35224;BME280;21367;51.930;8.112;2023-07-13T18:17:46;101133.59;;;19.63;88.03
35224;BME280;21367;51.930;8.112;2023-07-13T18:22:51;101130.78;;;19.43;88.83
35224;BME280;21367;51.930;8.112;2023-07-13T18:27:55;101123.97;;;19.57;87.60
35224;BME280;21367;51.930;8.112;2023-07-13T18:33:02;101121.13;;;19.37;88.26
35224;BME280;21367;51.930;8.112;2023-07-13T18:38:15;101122.09;;;19.44;87.87
35224;BME280;21367;51.930;8.112;2023-07-13T18:43:20;101112.31;;;19.29;89.89
35224;BME280;21367;51.930;8.112;2023-07-13T18:48:28;101110.13;;;18.94;93.04
35224;BME280;21367;51.930;8.112;2023-07-13T18:53:33;101107.47;;;18.91;90.25
35224;BME280;21367;51.930;8.112;2023-07-13T18:58:38;101116.59;;;18.65;93.70
35224;BME280;21367;51.930;8.112;2023-07-13T19:03:46;101123.22;;;18.99;91.77
35224;BME280;21367;51.930;8.112;2023-07-13T19:08:52;101125.34;;;18.70;93.74
35224;BME280;21367;51.930;8.112;2023-07-13T19:13:55;101125.38;;;18.71;94.32
35224;BME280;21367;51.930;8.112;2023-07-13T19:19:07;101128.44;;;18.99;93.21
35224;BME280;21367;51.930;8.112;2023-07-13T19:24:18;101131.66;;;18.83;94.56
35224;BME280;21367;51.930;8.112;2023-07-13T19:29:25;101130.78;;;18.81;96.09
35224;BME280;21367;51.930;8.112;2023-07-13T19:34:33;101143.25;;;18.50;97.92
35224;BME280;21367;51.930;8.112;2023-07-13T19:39:38;101148.31;;;18.41;98.76
35224;BME280;21367;51.930;8.112;2023-07-13T19:44:42;101156.88;;;18.35;98.60
35224;BME280;21367;51.930;8.112;2023-07-13T19:49:48;101163.59;;;18.21;97.55
35224;BME280;21367;51.930;8.112;2023-07-13T19:54:55;101171.00;;;18.01;96.42
35224;BME280;21367;51.930;8.112;2023-07-13T19:59:59;101171.94;;;18.04;94.97
35224;BME280;21367;51.930;8.112;2023-07-13T20:05:07;101162.38;;;18.02;94.38
35224;BME280;21367;51.930;8.112;2023-07-13T20:10:17;101168.09;;;17.86;94.51
35224;BME280;21367;51.930;8.112;2023-07-13T20:15:24;101169.16;;;17.95;94.67
35224;BME280;21367;51.930;8.112;2023-07-13T20:20:33;101184.50;;;17.82;95.50
35224;BME280;21367;51.930;8.112;2023-07-13T20:25:38;101194.81;;;17.77;95.63
35224;BME280;21367;51.930;8.112;2023-07-13T20:30:44;101198.69;;;17.56;96.78
35224;BME280;21367;51.930;8.112;2023-07-13T20:35:51;101193.47;;;17.55;98.20
35224;BME280;21367;51.930;8.112;2023-07-13T20:40:56;101200.09;;;17.42;98.77
35224;BME280;21367;51.930;8.112;2023-07-13T20:46:01;101200.78;;;17.33;99.48
35224;BME280;21367;51.930;8.112;2023-07-13T20:51:11;101203.38;;;17.33;100.00
35224;BME280;21367;51.930;8.112;2023-07-13T20:56:17;101207.44;;;17.22;99.35
35224;BME280;21367;51.930;8.112;2023-07-13T21:01:25;101198.78;;;17.22;100.00
35224;BME280;21367;51.930;8.112;2023-07-13T21:06:32;101187.41;;;17.17;99.94
35224;BME280;21367;51.930;8.112;2023-07-13T21:11:36;101194.16;;;17.08;100.00
35224;BME280;21367;51.930;8.112;2023-07-13T21:16:40;101198.34;;;17.02;100.00
35224;BME280;21367;51.930;8.112;2023-07-13T21:21:46;101188.59;;;16.93;100.00
35224;BME280;21367;51.930;8.112;2023-07-13T21:26:50;101193.75;;;16.92;100.00
35224;BME280;21367;51.930;8.112;2023-07-13T21:31:54;101198.75;;;16.84;100.00
35224;BME280;21367;51.930;8.112;2023-07-13T21:37:00;101207.34;;;16.81;100.00
35224;BME280;21367;51.930;8.112;2023-07-13T21:42:05;101207.13;;;16.74;100.00
35224;BME280;21367;51.930;8.112;2023-07-13T21:47:10;101208.53;;;16.61;100.00
35224;BME280;21367;51.930;8.112;2023-07-13T21:52:17;101214.47;;;16.57;100.00
35224;BME280;21367;51.930;8.112;2023-07-13T21:57:22;101204.97;;;16.57;100.00
35224;BME280;21367;51.930;8.112;2023-07-13T22:02:29;101210.66;;;16.42;100.00
35224;BME280;21367;51.930;8.112;2023-07-13T22:07:35;101211.31;;;16.35;100.00
35224;BME280;21367;51.930;8.112;2023-07-13T22:12:39;101204.31;;;16.31;100.00
35224;BME280;21367;51.930;8.112;2023-07-13T22:17:46;101211.88;;;16.24;100.00
35224;BME280;21367;51.930;8.112;2023-07-13T22:22:52;101218.56;;;16.15;100.00
35224;BME280;21367;51.930;8.112;2023-07-13T22:27:57;101216.75;;;16.11;100.00
35224;BME280;21367;51.930;8.112;2023-07-13T22:33:01;101208.09;;;16.11;100.00
35224;BME280;21367;51.930;8.112;2023-07-13T22:38:12;101206.28;;;16.08;100.00
35224;BME280;21367;51.930;8.112;2023-07-13T22:43:17;101208.88;;;16.08;100.00
35224;BME280;21367;51.930;8.112;2023-07-13T22:48:25;101201.00;;;16.05;100.00
35224;BME280;21367;51.930;8.112;2023-07-13T22:53:33;101198.25;;;15.99;100.00
35224;BME280;21367;51.930;8.112;2023-07-13T22:58:37;101199.91;;;15.97;100.00
35224;BME280;21367;51.930;8.112;2023-07-13T23:03:43;101203.47;;;16.01;100.00
35224;BME280;21367;51.930;8.112;2023-07-13T23:08:50;101206.13;;;16.02;100.00
35224;BME280;21367;51.930;8.112;2023-07-13T23:13:53;101202.31;;;15.91;100.00
35224;BME280;21367;51.930;8.112;2023-07-13T23:18:59;101206.56;;;15.87;100.00
35224;BME280;21367;51.930;8.112;2023-07-13T23:24:11;101203.97;;;15.87;100.00
35224;BME280;21367;51.930;8.112;2023-07-13T23:29:16;101194.13;;;15.76;100.00
35224;BME280;21367;51.930;8.112;2023-07-13T23:34:20;101201.97;;;15.79;100.00
35224;BME280;21367;51.930;8.112;2023-07-13T23:39:27;101199.47;;;15.82;100.00
35224;BME280;21367;51.930;8.112;2023-07-13T23:44:31;101192.38;;;16.05;100.00
35224;BME280;21367;51.930;8.112;2023-07-13T23:49:35;101198.34;;;16.02;100.00
35224;BME280;21367;51.930;8.112;2023-07-13T23:54:41;101185.28;;;15.99;100.00
35224;BME280;21367;51.930;8.112;2023-07-13T23:59:45;101187.66;;;15.91;100.00
